Terminal Aerodrome Forecast
Issued by NWS

Home | Current Version | Previous Version | Text Only | Print | Product List | Glossary Off
Versions: 1 2 3 4 5 6 7 8 9 10 11 12 13 14 15 16 17 18 19 20 21 22 23 24 25 26 27 28 29 30 31 32 33 34 35 36

000
FTUS43 KLOT 240500
TAFORD
TAF
KORD 240540Z 2406/2512 22011KT P6SM BKN200
     FM240900 22014G20KT P6SM BKN150 WS020/25045KT
     FM241400 23018G28KT P6SM BKN050 PROB30 2418/2420 3SM -SHSN
     FM242000 26015G25KT P6SM BKN025
     FM250200 28013KT P6SM SCT035
     FM250600 31008KT P6SM SKC=

USA.gov is the U.S. government's official web portal to all federal, state and local government web resources and services.